Time;durP1;ratioP1;P1;durP2;ratioP2;P2;SDS_P1;SDS_P2;PMS_P1;PMS_P2;Temp;Humidity;BMP_temperature;BMP_pressure;BME280_temperature;BME280_humidity;BME280_pressure;Samples;Min_cycle;Max_cycle;Signal;HPM_P1;HPM_P2
2024/03/15 00:01:30;;;;;;;6.43;2.10;;;;;;;9.01;100.00;99043.47;5059973;28;20044;-90
2024/03/15 00:03:56;;;;;;;8.68;2.47;;;;;;;8.94;100.00;99048.00;5049566;28;20750;-90
2024/03/15 00:06:22;;;;;;;4.13;1.88;;;;;;;8.24;100.00;98922.72;5047657;28;20120;-90
2024/03/15 00:08:49;;;;;;;6.15;2.38;;;;;;;8.36;100.00;98943.69;5055666;28;20051;-91
2024/03/15 00:11:15;;;;;;;7.13;2.25;;;;;;;8.31;100.00;98937.59;5040277;28;20028;-90
2024/03/15 00:13:41;;;;;;;9.85;2.50;;;;;;;8.91;100.00;99039.19;5032062;28;20406;-90
2024/03/15 00:16:09;;;;;;;4.65;2.00;;;;;;;8.92;100.00;99049.78;5033858;28;20048;-90
2024/03/15 00:18:36;;;;;;;6.05;2.30;;;;;;;8.91;100.00;99045.38;5055058;28;20032;-90
2024/03/15 00:21:02;;;;;;;5.60;2.40;;;;;;;8.20;100.00;98931.59;5053150;28;20044;-90
2024/03/15 00:23:28;;;;;;;7.75;2.85;;;;;;;8.86;100.00;99033.97;5042254;28;20041;-90
2024/03/15 00:25:55;;;;;;;7.28;3.00;;;;;;;8.89;100.00;99041.00;5047949;28;20037;-91
2024/03/15 00:28:21;;;;;;;5.28;2.40;;;;;;;8.25;100.00;98932.41;5056367;28;20033;-90
2024/03/15 00:30:49;;;;;;;4.47;1.90;;;;;;;8.94;100.00;99044.47;5055010;28;20039;-91
2024/03/15 00:33:15;;;;;;;5.13;2.33;;;;;;;8.55;100.00;98977.91;5046734;28;20136;-91
2024/03/15 00:35:42;;;;;;;7.75;3.30;;;;;;;8.86;100.00;99033.09;5042294;28;21323;-90
2024/03/15 00:38:09;;;;;;;5.60;2.88;;;;;;;8.87;100.00;99033.09;5048957;28;20032;-90
2024/03/15 00:40:35;;;;;;;5.47;2.92;;;;;;;8.14;100.00;98923.75;5050566;28;20116;-90
2024/03/15 00:43:03;;;;;;;7.90;2.60;;;;;;;8.34;100.00;98961.41;5046630;28;20123;-90
2024/03/15 00:45:29;;;;;;;4.88;2.10;;;;;;;8.80;100.00;99037.63;5030576;28;20036;-90
2024/03/15 00:47:55;;;;;;;9.40;2.45;;;;;;;8.55;100.00;99009.72;5049540;28;20037;-90
2024/03/15 00:50:21;;;;;;;7.60;2.95;;;;;;;8.66;100.00;99039.59;5047160;28;20083;-91
2024/03/15 00:52:47;;;;;;;5.82;2.15;;;;;;;7.91;100.00;98924.06;5052595;28;20082;-90
2024/03/15 00:55:13;;;;;;;7.25;2.38;;;;;;;8.03;100.00;98943.31;5048609;28;20037;-89
2024/03/15 00:57:39;;;;;;;6.13;2.40;;;;;;;8.22;100.00;98975.72;5050952;28;20044;-90
2024/03/15 01:00:05;;;;;;;7.82;2.85;;;;;;;8.64;100.00;99042.25;5055682;28;20032;-90
2024/03/15 01:02:32;;;;;;;5.53;3.10;;;;;;;8.61;100.00;99044.09;5040431;28;20033;-89
2024/03/15 01:04:58;;;;;;;6.63;2.70;;;;;;;7.81;100.00;98904.78;5052533;28;20131;-91
2024/03/15 01:07:24;;;;;;;5.75;2.55;;;;;;;7.70;100.00;98890.81;5057421;28;20060;-91
2024/03/15 01:09:50;;;;;;;9.90;3.03;;;;;;;8.58;100.00;99036.16;5040245;28;20127;-90
2024/03/15 01:12:16;;;;;;;7.35;2.50;;;;;;;8.46;100.00;99029.28;5059761;28;20494;-90
2024/03/15 01:14:42;;;;;;;9.60;2.55;;;;;;;7.95;100.00;98971.66;5052418;28;20037;-90
2024/03/15 01:17:08;;;;;;;7.38;2.67;;;;;;;8.23;100.00;99034.88;5034579;28;20044;-91
2024/03/15 01:19:34;;;;;;;6.88;2.70;;;;;;;8.23;100.00;99026.91;5067964;28;20387;-91
2024/03/15 01:22:00;;;;;;;6.97;2.75;;;;;;;7.48;100.00;98941.38;5049872;28;20045;-90
2024/03/15 01:24:26;;;;;;;6.28;2.95;;;;;;;7.46;100.00;98929.94;5058719;28;20127;-90
2024/03/15 01:26:52;;;;;;;5.63;2.40;;;;;;;7.99;100.00;99028.97;5036472;28;20033;-90
2024/03/15 01:29:18;;;;;;;6.10;3.35;;;;;;;7.92;100.00;99018.50;5043948;28;20044;-90
2024/03/15 01:31:44;;;;;;;9.65;3.08;;;;;;;7.87;100.00;99026.50;5035487;28;20071;-90
2024/03/15 01:34:11;;;;;;;5.47;2.78;;;;;;;7.67;100.00;98984.38;5052232;28;20064;-90
2024/03/15 01:36:37;;;;;;;7.03;3.35;;;;;;;7.96;100.00;99023.75;5056829;28;20033;-90
2024/03/15 01:39:05;;;;;;;7.63;2.70;;;;;;;8.07;100.00;99020.94;5048286;28;20035;-90
2024/03/15 01:41:31;;;;;;;8.45;2.78;;;;;;;8.00;100.00;99012.22;5051987;28;20387;-90
2024/03/15 01:43:56;;;;;;;7.03;3.20;;;;;;;7.43;100.00;98916.72;5047546;28;20472;-90
2024/03/15 01:46:23;;;;;;;7.15;2.67;;;;;;;7.81;100.00;98969.19;5058233;28;20040;-90
2024/03/15 01:48:49;;;;;;;6.20;2.92;;;;;;;8.08;100.00;99006.78;5068549;28;20044;-90
2024/03/15 01:51:15;;;;;;;11.05;2.90;;;;;;;8.17;100.00;99016.41;5053183;28;20050;-90
2024/03/15 01:53:43;;;;;;;6.88;2.65;;;;;;;7.93;100.00;98973.44;5075238;28;20044;-90
2024/03/15 01:56:09;;;;;;;9.57;2.53;;;;;;;7.96;100.00;98970.78;5057264;28;20047;-90
2024/03/15 01:58:36;;;;;;;5.95;2.80;;;;;;;7.39;100.00;98876.22;5051001;28;20044;-90
2024/03/15 02:01:03;;;;;;;6.45;3.13;;;;;;;8.27;100.00;99009.22;5044421;28;20041;-90
2024/03/15 02:03:29;;;;;;;9.98;3.20;;;;;;;8.25;100.00;99014.53;5065492;28;20063;-90
2024/03/15 02:05:55;;;;;;;6.97;2.50;;;;;;;8.27;100.00;99014.50;5066976;28;20032;-90
2024/03/15 02:08:21;;;;;;;7.95;2.85;;;;;;;8.31;100.00;99038.28;5069435;28;20075;-90
2024/03/15 02:10:47;;;;;;;5.88;3.00;;;;;;;8.30;100.00;99017.97;5043858;28;20399;-90
2024/03/15 02:13:15;;;;;;;7.35;3.05;;;;;;;7.94;100.00;98958.47;5064619;28;20043;-90
2024/03/15 02:15:41;;;;;;;4.93;2.55;;;;;;;8.11;100.00;98980.28;5062970;28;20040;-90
2024/03/15 02:18:07;;;;;;;7.10;2.67;;;;;;;7.64;100.00;98906.78;5045161;28;20086;-90
2024/03/15 02:20:33;;;;;;;4.30;2.38;;;;;;;7.93;100.00;98962.84;5052485;28;20484;-90
2024/03/15 02:22:59;;;;;;;5.38;2.20;;;;;;;8.22;100.00;99017.22;5060621;28;20033;-91
2024/03/15 02:25:26;;;;;;;4.50;2.17;;;;;;;8.14;100.00;99022.63;5043496;28;20071;-90
2024/03/15 02:27:52;;;;;;;7.22;3.08;;;;;;;8.06;100.00;99019.19;5042600;28;20033;-90
2024/03/15 02:30:20;;;;;;;6.80;3.35;;;;;;;8.00;100.00;99016.59;5066499;28;20052;-90
2024/03/15 02:32:46;;;;;;;10.40;2.83;;;;;;;7.95;100.00;99019.31;5045882;28;20099;-90
2024/03/15 02:35:15;;;;;;;6.72;2.92;;;;;;;7.59;100.00;98988.91;5070134;28;20032;-91
2024/03/15 02:37:41;;;;;;;8.82;3.00;;;;;;;7.33;100.00;98937.16;5065078;28;20043;-90
2024/03/15 02:40:09;;;;;;;6.47;2.45;;;;;;;7.36;100.00;98952.09;5071705;28;20059;-90
2024/03/15 02:42:36;;;;;;;4.50;2.30;;;;;;;7.74;100.00;99028.41;5048696;28;20097;-90
2024/03/15 02:45:02;;;;;;;4.22;2.00;;;;;;;7.68;100.00;99025.84;5042587;28;20070;-91
2024/03/15 02:47:28;;;;;;;3.60;1.77;;;;;;;7.27;100.00;98984.81;5061036;28;20054;-90
2024/03/15 02:49:55;;;;;;;8.00;2.22;;;;;;;7.60;100.00;99043.56;5064919;28;20068;-91
2024/03/15 02:52:22;;;;;;;4.35;1.67;;;;;;;7.57;100.00;99033.03;5033967;28;20039;-90
2024/03/15 02:54:47;;;;;;;6.13;1.85;;;;;;;7.50;100.00;99037.47;5049422;28;20048;-90
2024/03/15 02:57:13;;;;;;;4.60;2.28;;;;;;;7.50;100.00;99040.13;5041886;28;20025;-90
2024/03/15 02:59:40;;;;;;;5.43;2.55;;;;;;;7.49;100.00;99037.50;5049225;28;20124;-90
2024/03/15 03:02:08;;;;;;;4.30;1.92;;;;;;;7.59;100.00;99040.03;5035765;28;20050;-90
2024/03/15 03:04:35;;;;;;;6.82;2.20;;;;;;;7.67;100.00;99039.06;5054217;28;20123;-90
2024/03/15 03:07:03;;;;;;;4.53;2.17;;;;;;;7.65;100.00;99035.56;5041724;28;20032;-90
2024/03/15 03:09:32;;;;;;;5.85;2.78;;;;;;;6.94;100.00;98904.03;5051533;28;20058;-90
2024/03/15 03:11:58;;;;;;;14.15;2.58;;;;;;;7.25;100.00;98952.22;5057666;28;20136;-90
2024/03/15 03:14:24;;;;;;;8.10;3.05;;;;;;;7.53;100.00;99004.84;5061878;28;20043;-90
2024/03/15 03:16:50;;;;;;;8.80;3.55;;;;;;;7.71;100.00;99035.50;5039172;28;20514;-90
2024/03/15 03:19:17;;;;;;;9.07;3.42;;;;;;;7.84;100.00;99038.91;5034949;28;20067;-90
2024/03/15 03:21:45;;;;;;;7.03;3.15;;;;;;;7.61;100.00;99006.50;5055550;28;20035;-90
2024/03/15 03:24:11;;;;;;;7.05;3.28;;;;;;;7.89;100.00;99052.94;5049220;28;20131;-90
2024/03/15 03:26:37;;;;;;;6.15;3.42;;;;;;;7.92;100.00;99043.19;5043410;28;20090;-90
2024/03/15 03:29:03;;;;;;;6.18;3.55;;;;;;;7.20;100.00;98907.31;5040018;28;20035;-90
2024/03/15 03:31:29;;;;;;;6.55;3.63;;;;;;;7.36;100.00;98920.34;5057871;28;20040;-90
2024/03/15 03:33:55;;;;;;;11.43;4.00;;;;;;;8.11;100.00;99029.72;5030959;28;20048;-90
2024/03/15 03:36:21;;;;;;;13.18;4.65;;;;;;;8.20;100.00;99040.22;5048117;28;20041;-91
2024/03/15 03:38:48;;;;;;;9.98;4.43;;;;;;;8.31;100.00;99038.28;5032767;28;20036;-90
2024/03/15 03:41:14;;;;;;;7.75;4.05;;;;;;;8.37;100.00;99043.50;5030798;28;20041;-90
2024/03/15 03:43:43;;;;;;;9.95;4.22;;;;;;;8.41;100.00;99039.97;5044914;28;20098;-90
2024/03/15 03:46:12;;;;;;;9.35;5.15;;;;;;;8.45;100.00;99032.81;5044551;28;20056;-91
2024/03/15 03:48:38;;;;;;;8.40;4.40;;;;;;;8.58;100.00;99038.81;5030327;28;20544;-90
2024/03/15 03:51:04;;;;;;;12.68;4.85;;;;;;;8.55;100.00;99038.88;5046053;28;20037;-91
2024/03/15 03:53:30;;;;;;;9.52;4.20;;;;;;;8.17;100.00;98960.75;5026966;28;20044;-90
2024/03/15 03:55:56;;;;;;;9.50;4.05;;;;;;;8.38;100.00;98981.66;5044866;28;20047;-90
2024/03/15 03:58:23;;;;;;;12.35;5.20;;;;;;;8.65;100.00;99029.88;5055523;28;20082;-89
2024/03/15 04:00:49;;;;;;;10.35;4.65;;;;;;;8.23;100.00;98966.84;5050710;28;20037;-90
2024/03/15 04:03:15;;;;;;;8.32;4.90;;;;;;;8.73;100.00;99041.25;5050476;28;20029;-91
2024/03/15 04:05:42;;;;;;;11.98;4.53;;;;;;;8.61;100.00;99037.00;5049783;28;20498;-90
2024/03/15 04:08:08;;;;;;;11.15;5.13;;;;;;;8.60;100.00;99037.03;5045929;28;20037;-90
2024/03/15 04:10:36;;;;;;;11.40;4.93;;;;;;;8.57;100.00;99042.38;5034501;28;20048;-90
2024/03/15 04:13:04;;;;;;;9.77;4.40;;;;;;;8.20;100.00;98981.94;5045724;28;20065;-90
2024/03/15 04:15:30;;;;;;;10.30;4.85;;;;;;;8.64;100.00;99036.94;5059616;28;20029;-90
2024/03/15 04:17:57;;;;;;;11.18;4.10;;;;;;;8.59;100.00;99048.53;5058785;28;20458;-91
2024/03/15 04:20:23;;;;;;;6.82;3.53;;;;;;;8.57;100.00;99037.94;5058638;28;20041;-90
2024/03/15 04:22:50;;;;;;;9.02;4.13;;;;;;;8.69;100.00;99055.44;5068279;28;20082;-90
2024/03/15 04:25:16;;;;;;;9.95;4.55;;;;;;;8.73;100.00;99059.81;5047076;28;20029;-91
2024/03/15 04:27:43;;;;;;;10.88;4.57;;;;;;;8.74;100.00;99053.63;5036852;28;20044;-91
2024/03/15 04:30:13;;;;;;;8.18;4.38;;;;;;;8.10;100.00;98951.16;5051271;28;20033;-90
2024/03/15 04:32:40;;;;;;;7.20;3.53;;;;;;;8.53;100.00;99025.63;5057569;28;20043;-90
2024/03/15 04:35:06;;;;;;;10.02;4.43;;;;;;;8.46;100.00;98988.63;5034360;28;20028;-91
2024/03/15 04:37:33;;;;;;;7.28;3.72;;;;;;;8.61;100.00;98999.03;5062392;28;20139;-90
2024/03/15 04:39:59;;;;;;;8.57;4.25;;;;;;;8.94;100.00;99057.75;5030671;28;20071;-90
2024/03/15 04:42:31;;;;;;;8.32;3.80;;;;;;;8.40;100.00;98979.00;5045795;28;20115;-90
2024/03/15 04:44:57;;;;;;;10.50;3.75;;;;;;;8.92;100.00;99067.50;5058237;28;20056;-91
2024/03/15 04:47:25;;;;;;;9.15;4.20;;;;;;;8.77;100.00;99029.69;5039587;28;20113;-90
2024/03/15 04:49:51;;;;;;;11.50;4.15;;;;;;;8.29;100.00;98957.94;5048737;28;20044;-90
2024/03/15 04:52:17;;;;;;;6.80;4.00;;;;;;;8.60;100.00;99018.47;5059102;28;20475;-91
2024/03/15 04:54:43;;;;;;;10.10;4.78;;;;;;;8.37;100.00;98969.31;5058680;28;20426;-90
2024/03/15 04:57:10;;;;;;;9.20;4.05;;;;;;;8.92;100.00;99054.22;5060212;28;20463;-91
2024/03/15 04:59:36;;;;;;;6.60;3.78;;;;;;;8.88;100.00;99041.91;5051004;28;20082;-90
2024/03/15 05:02:02;;;;;;;8.00;4.13;;;;;;;8.91;100.00;99048.03;5049689;28;20086;-90
2024/03/15 05:04:28;;;;;;;6.55;3.20;;;;;;;8.08;100.00;98930.00;5049975;28;20446;-90
2024/03/15 05:06:54;;;;;;;10.23;4.10;;;;;;;8.82;100.00;99054.34;5058914;28;20063;-91
2024/03/15 05:09:22;;;;;;;7.82;4.28;;;;;;;8.79;100.00;99057.06;5034950;28;20115;-89
2024/03/15 05:11:48;;;;;;;11.57;3.60;;;;;;;8.79;100.00;99050.88;5063535;28;20064;-90
2024/03/15 05:14:14;;;;;;;9.43;3.60;;;;;;;8.88;100.00;99058.69;5068610;28;20047;-91
2024/03/15 05:16:40;;;;;;;9.27;3.53;;;;;;;8.73;100.00;99040.38;5053502;28;20043;-90
2024/03/15 05:19:07;;;;;;;7.72;4.10;;;;;;;8.75;100.00;99058.00;5061773;28;20106;-90
2024/03/15 05:21:34;;;;;;;8.85;3.97;;;;;;;8.77;100.00;99058.84;5055107;28;20036;-90
2024/03/15 05:24:00;;;;;;;10.95;4.47;;;;;;;8.79;100.00;99067.66;5065987;28;20036;-90
2024/03/15 05:26:26;;;;;;;11.23;3.95;;;;;;;8.83;100.00;99069.38;5046407;28;20033;-90
2024/03/15 05:28:52;;;;;;;6.57;3.55;;;;;;;8.84;100.00;99065.81;5044549;28;20047;-90
2024/03/15 05:31:22;;;;;;;10.18;4.18;;;;;;;8.16;100.00;98921.94;5034399;28;20037;-90
2024/03/15 05:33:48;;;;;;;;;;;;;;;8.95;100.00;99063.00;5043593;28;20051;-90
2024/03/15 05:36:14;;;;;;;14.55;4.10;;;;;;;8.54;100.00;99005.31;5106009;28;19923;-90
2024/03/15 05:38:40;;;;;;;7.35;3.88;;;;;;;8.34;100.00;98964.03;5050627;28;20033;-90
2024/03/15 05:41:06;;;;;;;11.55;4.35;;;;;;;8.55;100.00;99021.19;5063806;28;20051;-90
2024/03/15 05:43:32;;;;;;;9.32;4.10;;;;;;;8.31;100.00;98956.16;5063913;28;20391;-89
2024/03/15 05:45:58;;;;;;;9.63;4.43;;;;;;;8.91;100.00;99066.59;5073080;28;20050;-90
2024/03/15 05:48:24;;;;;;;9.43;3.85;;;;;;;8.94;100.00;99066.56;5050413;28;20036;-90
2024/03/15 05:50:51;;;;;;;9.45;4.38;;;;;;;8.84;100.00;99044.59;5035558;28;20036;-90
2024/03/15 05:53:16;;;;;;;13.45;4.38;;;;;;;9.04;100.00;99067.28;5073453;28;20081;-90
2024/03/15 05:55:43;;;;;;;11.02;3.63;;;;;;;8.88;100.00;99033.97;5038082;28;20036;-90
2024/03/15 05:58:10;;;;;;;8.50;3.85;;;;;;;8.43;100.00;98941.88;5036388;28;20055;-90
2024/03/15 06:00:36;;;;;;;9.27;4.13;;;;;;;9.16;100.00;99067.09;5043309;28;20603;-90
2024/03/15 06:03:05;;;;;;;7.75;4.25;;;;;;;9.16;100.00;99069.75;5034576;28;20028;-90
2024/03/15 06:05:31;;;;;;;8.73;4.25;;;;;;;9.19;100.00;99082.06;5051464;28;20032;-90
2024/03/15 06:07:57;;;;;;;8.60;4.07;;;;;;;9.17;100.00;99073.25;5043729;28;20308;-90
2024/03/15 06:10:25;;;;;;;8.95;3.92;;;;;;;9.19;100.00;99072.31;5040684;28;20501;-91
2024/03/15 06:12:51;;;;;;;9.50;4.13;;;;;;;9.21;100.00;99070.53;5043327;28;20043;-90
2024/03/15 06:15:19;;;;;;;11.50;4.25;;;;;;;8.56;100.00;98951.38;5035225;28;20040;-92
2024/03/15 06:17:45;;;;;;;10.63;4.18;;;;;;;9.33;100.00;99074.78;5045480;28;20040;-89
2024/03/15 06:20:11;;;;;;;8.18;4.07;;;;;;;9.36;100.00;99084.44;5050340;28;20536;-89
2024/03/15 06:22:38;;;;;;;8.93;4.07;;;;;;;8.56;100.00;98948.72;5059234;28;20036;-89
2024/03/15 06:25:05;;;;;;;8.52;3.85;;;;;;;9.38;100.00;99082.66;5063264;28;20056;-89
2024/03/15 06:27:31;;;;;;;11.27;4.70;;;;;;;8.86;100.00;98978.28;5035631;28;20081;-89
2024/03/15 06:29:57;;;;;;;11.48;5.35;;;;;;;8.92;100.00;98994.09;5035194;28;20048;-89
2024/03/15 06:32:26;;;;;;;11.10;5.55;;;;;;;9.49;100.00;99085.13;5063001;28;20028;-90
2024/03/15 06:34:52;;;;;;;9.05;4.90;;;;;;;9.42;100.00;99089.66;5053765;28;20052;-89
2024/03/15 06:37:22;;;;;;;11.02;5.78;;;;;;;9.39;100.00;99095.91;5049175;28;20063;-89
2024/03/15 06:42:37;;;;;;;8.88;6.55;;;;;;;9.43;100.00;99102.91;5153538;27;20370;-89
2024/03/15 06:45:08;;;;;;;10.90;6.10;;;;;;;9.46;100.00;99104.63;5105495;27;20074;-90
2024/03/15 06:47:38;;;;;;;12.68;7.30;;;;;;;9.55;100.00;99096.50;5122305;27;20061;-90
2024/03/15 06:50:06;;;;;;;;;;;;;;;9.54;100.00;99102.72;5124571;27;20049;-90
2024/03/15 06:52:34;;;;;;;10.43;6.57;;;;;;;9.49;100.00;99085.97;5120888;27;19919;-91
2024/03/15 06:55:01;;;;;;;12.10;6.90;;;;;;;9.58;100.00;99099.09;5111501;27;20046;-90
2024/03/15 06:57:28;;;;;;;13.70;6.05;;;;;;;9.50;100.00;99094.81;5111675;27;20453;-89
2024/03/15 06:59:54;;;;;;;14.55;7.45;;;;;;;9.39;100.00;99089.69;5103650;27;20050;-90
2024/03/15 07:02:21;;;;;;;15.00;7.50;;;;;;;9.55;100.00;99106.25;5100869;27;20036;-89
2024/03/15 07:04:50;;;;;;;17.58;8.27;;;;;;;9.79;100.00;99102.28;5102847;27;20109;-90
2024/03/15 07:07:16;;;;;;;9.80;5.85;;;;;;;9.80;100.00;99102.25;5127332;27;20443;-90
2024/03/15 07:09:43;;;;;;;12.18;6.03;;;;;;;9.90;100.00;99100.28;5099161;27;20031;-90
2024/03/15 07:12:09;;;;;;;12.57;7.07;;;;;;;9.48;100.00;99019.63;5104298;27;20043;-90
2024/03/15 07:14:36;;;;;;;12.77;7.22;;;;;;;10.02;100.00;99102.72;5114435;27;20037;-91
2024/03/15 07:17:04;;;;;;;13.05;7.82;;;;;;;9.41;100.00;98992.34;5122948;27;20042;-90
2024/03/15 07:19:32;;;;;;;18.20;8.32;;;;;;;10.18;100.00;99111.25;5108102;27;20042;-89
2024/03/15 07:21:58;;;;;;;11.57;8.43;;;;;;;10.24;100.00;99108.47;5112944;27;20048;-90
2024/03/15 07:24:24;;;;;;;13.20;8.27;;;;;;;10.31;100.00;99109.25;5115534;27;20039;-89
2024/03/15 07:26:50;;;;;;;13.43;8.05;;;;;;;10.34;100.00;99106.53;5103984;27;20592;-88
2024/03/15 07:29:17;;;;;;;11.80;8.25;;;;;;;10.26;100.00;99087.19;5105255;27;20028;-89
2024/03/15 07:31:43;;;;;;;15.18;8.20;;;;;;;10.12;100.00;99028.13;5102879;27;20137;-89
2024/03/15 07:34:09;;;;;;;12.63;7.05;;;;;;;10.61;100.00;99104.22;5125558;27;20049;-91
2024/03/15 07:36:35;;;;;;;11.80;7.28;;;;;;;10.80;100.00;99104.66;5110409;27;20518;-91
2024/03/15 07:39:01;;;;;;;14.50;7.20;;;;;;;10.91;100.00;99115.94;5102510;27;20054;-90
2024/03/15 07:41:31;;;;;;;18.20;7.97;;;;;;;11.03;100.00;99105.00;5105716;27;20511;-91
2024/03/15 07:43:57;;;;;;;14.75;7.68;;;;;;;11.10;100.00;99103.97;5120088;27;20043;-90
2024/03/15 07:46:24;;;;;;;13.25;8.43;;;;;;;11.20;100.00;99107.25;5124818;27;20042;-90
2024/03/15 07:48:50;;;;;;;16.02;7.15;;;;;;;11.25;100.00;99104.47;5128104;27;20035;-90
2024/03/15 07:51:16;;;;;;;16.60;7.43;;;;;;;10.92;100.00;99034.34;5132781;27;20036;-91
2024/03/15 07:53:45;;;;;;;14.13;7.50;;;;;;;10.94;100.00;99027.19;5123000;27;20083;-89
2024/03/15 07:56:11;;;;;;;11.93;6.93;;;;;;;11.50;100.00;99115.41;5113855;27;20085;-89
2024/03/15 07:58:37;;;;;;;15.93;7.40;;;;;;;11.52;100.00;99109.13;5118330;27;20027;-90
2024/03/15 08:01:07;;;;;;;11.55;6.88;;;;;;;11.44;100.00;99088.94;5108068;27;20035;-91
2024/03/15 08:03:34;;;;;;;10.57;6.80;;;;;;;11.59;100.00;99099.19;5107457;27;20039;-92
2024/03/15 08:06:02;;;;;;;8.82;6.97;;;;;;;11.82;100.00;99116.34;5106494;27;20054;-92
2024/03/15 08:08:28;;;;;;;10.35;7.25;;;;;;;11.90;100.00;99109.94;5116964;27;20047;-91
2024/03/15 08:10:54;;;;;;;10.65;6.13;;;;;;;11.87;100.00;99120.66;5120310;27;20045;-92
2024/03/15 08:13:25;;;;;;;10.75;5.28;;;;;;;11.91;100.00;99129.47;5110530;27;20035;-91
2024/03/15 08:15:54;;;;;;;7.57;4.95;;;;;;;11.68;100.00;99119.38;5091595;27;20027;-91
2024/03/15 08:18:20;;;;;;;10.48;5.00;;;;;;;11.42;100.00;99075.66;5113087;27;20039;-91
2024/03/15 08:20:47;;;;;;;10.30;5.57;;;;;;;11.84;100.00;99131.41;5106150;27;20043;-91
2024/03/15 08:23:13;;;;;;;10.20;5.53;;;;;;;11.45;100.00;99054.28;5093301;27;20034;-91
2024/03/15 08:25:41;;;;;;;8.02;5.32;;;;;;;11.72;100.00;99073.09;5102331;27;20041;-91
2024/03/15 08:28:09;;;;;;;11.82;6.35;;;;;;;11.77;100.00;99057.84;5110941;27;20040;-92
2024/03/15 08:30:37;;;;;;;10.57;6.35;;;;;;;12.28;100.00;99129.34;5105934;27;20098;-91
2024/03/15 08:33:03;;;;;;;9.90;5.90;;;;;;;12.47;100.00;99128.78;5093652;28;20054;-91
2024/03/15 08:35:30;;;;;;;7.40;6.05;;;;;;;12.62;100.00;99130.16;5110104;27;20043;-92
2024/03/15 08:37:58;;;;;;;7.75;4.88;;;;;;;12.39;100.00;99053.50;5099322;27;20096;-91
2024/03/15 08:40:25;;;;;;;11.52;6.13;;;;;;;12.82;100.00;99114.44;5120423;27;20103;-91
2024/03/15 08:42:51;;;;;;;9.07;4.97;;;;;;;12.95;100.00;99120.25;5104117;27;20069;-92
2024/03/15 08:45:19;;;;;;;11.30;4.40;;;;;;;13.21;100.00;99130.13;5104968;27;20370;-92
2024/03/15 08:47:46;;;;;;;13.00;6.43;;;;;;;13.04;100.00;99127.97;5124460;27;20043;-92
2024/03/15 08:50:13;;;;;;;14.18;6.10;;;;;;;13.06;100.00;99123.47;5111902;27;20036;-91
2024/03/15 08:52:39;;;;;;;12.40;5.28;;;;;;;13.21;100.00;99127.44;5085481;28;20043;-92
2024/03/15 08:55:09;;;;;;;13.43;6.65;;;;;;;13.26;100.00;99120.16;5089131;27;20032;-92
2024/03/15 08:57:36;;;;;;;12.88;6.90;;;;;;;13.44;100.00;99121.38;5084065;27;20039;-92
2024/03/15 09:00:06;;;;;;;15.57;7.18;;;;;;;13.44;100.00;99115.16;5091613;27;20060;-93
2024/03/15 09:02:32;;;;;;;13.60;6.80;;;;;;;13.37;100.00;99113.63;5095520;27;20038;-92
2024/03/15 09:04:58;;;;;;;13.80;7.05;;;;;;;13.29;100.00;99096.06;5096492;27;20032;-91
2024/03/15 09:07:24;;;;;;;8.23;5.55;;;;;;;13.67;100.00;99114.41;5082904;27;20043;-89
2024/03/15 09:09:50;;;;;;;10.60;5.75;;;;;;;13.83;100.00;99101.38;5080882;27;20494;-89
2024/03/15 09:12:18;;;;;;;12.80;5.72;;;;;;;13.90;100.00;99074.38;5113438;27;20120;-89
2024/03/15 09:14:46;;;;;;;10.18;4.63;;;;;;;14.20;100.00;99094.69;5111491;27;20066;-89
2024/03/15 09:17:12;;;;;;;11.77;5.13;;;;;;;14.31;100.00;99100.53;5090195;27;20035;-89
2024/03/15 09:19:38;;;;;;;8.63;4.78;;;;;;;14.38;100.00;99094.03;5094072;27;20070;-92
2024/03/15 09:22:04;;;;;;;7.78;4.32;;;;;;;14.30;100.00;99085.41;5113660;27;20039;-90
2024/03/15 09:24:31;;;;;;;6.47;4.63;;;;;;;14.38;100.00;99086.00;5116612;27;20047;-90
2024/03/15 09:26:58;;;;;;;10.27;4.82;;;;;;;14.07;100.00;99052.34;5099108;27;20046;-90
2024/03/15 09:29:24;;;;;;;8.50;3.95;;;;;;;14.39;100.00;99071.69;5115309;27;20027;-89
2024/03/15 09:31:54;;;;;;;7.00;3.55;;;;;;;14.57;100.00;99075.50;5116122;27;20031;-90
2024/03/15 09:34:22;;;;;;;6.85;4.13;;;;;;;14.77;100.00;99083.63;5084278;27;20061;-90
2024/03/15 09:36:48;;;;;;;8.77;4.90;;;;;;;14.89;100.00;99082.28;5083218;27;20036;-90
2024/03/15 09:39:15;;;;;;;8.65;5.20;;;;;;;14.94;100.00;99076.72;5100304;27;20084;-91
2024/03/15 09:41:42;;;;;;;8.80;5.40;;;;;;;15.30;100.00;99084.22;5083912;27;20050;-90
2024/03/15 09:44:08;;;;;;;7.38;3.72;;;;;;;15.48;100.00;99083.44;5085648;27;20043;-90
2024/03/15 09:46:34;;;;;;;7.15;4.45;;;;;;;15.56;100.00;99075.94;5094799;27;20097;-90
2024/03/15 09:49:00;;;;;;;6.63;3.72;;;;;;;15.72;100.00;99080.69;5114852;27;20502;-89
2024/03/15 09:51:27;;;;;;;7.78;4.95;;;;;;;15.64;100.00;99072.97;5118796;27;20091;-89
2024/03/15 09:53:53;;;;;;;7.97;3.95;;;;;;;15.77;100.00;99070.66;5106052;27;20058;-91
2024/03/15 09:56:19;;;;;;;7.03;4.20;;;;;;;15.87;100.00;99066.59;5104933;27;20062;-91
2024/03/15 09:58:46;;;;;;;13.75;3.38;;;;;;;16.11;100.00;99070.03;5103747;27;20035;-90
2024/03/15 10:01:13;;;;;;;5.47;3.45;;;;;;;15.95;100.00;99064.47;5092559;27;20127;-91
2024/03/15 10:03:41;;;;;;;6.90;3.40;;;;;;;16.00;100.00;99061.56;5107296;27;20037;-91
2024/03/15 10:06:08;;;;;;;6.47;3.13;;;;;;;16.18;100.00;99057.22;5100177;27;20078;-92
2024/03/15 10:08:33;;;;;;;6.88;3.30;;;;;;;16.19;100.00;99057.13;5086205;27;20087;-91
2024/03/15 10:10:59;;;;;;;4.50;2.17;;;;;;;16.12;100.00;99019.94;5106787;27;21744;-91
2024/03/15 10:13:27;;;;;;;6.72;2.58;;;;;;;15.99;100.00;99060.72;5112543;27;20049;-90
2024/03/15 10:15:53;;;;;;;4.15;2.30;;;;;;;16.07;100.00;99019.25;5114701;27;20505;-91
2024/03/15 10:18:19;;;;;;;6.68;2.38;;;;;;;16.38;100.00;99051.78;5092563;27;20071;-89
2024/03/15 10:20:47;;;;;;;2.90;2.00;;;;;;;16.54;100.00;99060.00;5104595;27;20039;-91
2024/03/15 10:23:13;;;;;;;4.50;1.48;;;;;;;16.60;100.00;99057.03;5100336;28;20441;-90
2024/03/15 10:25:40;;;;;;;7.07;3.40;;;;;;;16.62;100.00;99055.13;5094102;27;20085;-91
2024/03/15 10:28:06;;;;;;;3.13;2.38;;;;;;;16.66;100.00;99057.69;5100333;27;20054;-90
2024/03/15 10:30:32;;;;;;;3.17;2.17;;;;;;;16.63;100.00;99042.56;5084668;27;20039;-90
2024/03/15 10:32:59;;;;;;;3.95;2.50;;;;;;;16.69;100.00;99050.34;5083852;28;20031;-91
2024/03/15 10:35:27;;;;;;;5.40;2.20;;;;;;;16.58;100.00;99058.91;5076142;27;20039;-91
2024/03/15 10:37:53;;;;;;;4.82;2.08;;;;;;;16.42;93.67;99060.59;5084467;28;20066;-91
2024/03/15 10:40:20;;;;;;;5.15;1.75;;;;;;;16.53;98.01;99063.63;5087719;27;20393;-91
2024/03/15 10:42:48;;;;;;;5.97;1.63;;;;;;;16.33;92.43;99055.63;5106926;27;20046;-90
2024/03/15 10:45:17;;;;;;;3.78;2.75;;;;;;;16.20;94.04;99058.88;5091616;27;20043;-90
2024/03/15 10:47:44;;;;;;;5.88;1.77;;;;;;;16.38;92.39;99053.63;5088994;27;20034;-91
2024/03/15 10:50:11;;;;;;;4.95;2.30;;;;;;;16.30;94.38;99062.00;5101645;27;20031;-90
2024/03/15 10:52:37;;;;;;;6.85;2.92;;;;;;;16.11;89.41;99048.56;5106312;27;20039;-90
2024/03/15 10:55:06;;;;;;;3.42;2.03;;;;;;;16.10;88.85;99044.13;5100555;27;20035;-92
2024/03/15 10:57:32;;;;;;;4.05;2.05;;;;;;;15.83;93.71;99043.56;5078951;28;20032;-92
2024/03/15 10:59:59;;;;;;;5.72;2.92;;;;;;;16.02;94.79;99049.84;5096817;27;20044;-92
2024/03/15 11:02:25;;;;;;;10.15;2.42;;;;;;;16.25;89.99;99041.72;5084343;27;20067;-91
2024/03/15 11:04:53;;;;;;;4.90;2.38;;;;;;;16.04;91.42;98968.44;5109360;27;20033;-91
2024/03/15 11:07:20;;;;;;;3.70;2.08;;;;;;;16.06;90.67;98991.56;5107094;27;20031;-92
2024/03/15 11:09:47;;;;;;;3.20;2.55;;;;;;;16.58;92.07;99034.75;5094583;27;20148;-92
2024/03/15 11:12:13;;;;;;;6.50;3.03;;;;;;;16.26;92.08;98973.66;5091755;27;20126;-91
2024/03/15 11:14:39;;;;;;;3.83;2.38;;;;;;;16.36;92.30;98970.47;5108198;27;20032;-93
2024/03/15 11:17:06;;;;;;;2.30;1.95;;;;;;;16.88;87.65;99031.56;5090225;27;20057;-91
2024/03/15 11:19:44;;;;;;;3.95;1.90;;;;;;;16.72;87.11;99027.84;5109870;27;20055;-92
2024/03/15 11:22:15;;;;;;;2.00;1.13;;;;;;;16.62;86.64;98979.09;5101447;28;20392;-92
2024/03/15 11:24:42;;;;;;;2.22;2.03;;;;;;;16.31;86.97;98956.41;5090463;28;20039;-92
2024/03/15 11:27:12;;;;;;;3.65;2.40;;;;;;;16.73;86.71;99021.53;5088839;27;20034;-91
2024/03/15 11:29:38;;;;;;;2.67;2.00;;;;;;;16.63;85.91;98965.59;5082153;27;20062;-93